createdAt,value
2023-04-23T00:01:28.123Z,19.70
2023-04-23T00:03:58.896Z,19.13
2023-04-23T00:06:27.781Z,18.63
2023-04-23T00:08:56.467Z,18.20
2023-04-23T00:11:24.804Z,18.67
2023-04-23T00:13:54.842Z,18.60
2023-04-23T00:16:24.606Z,19.35
2023-04-23T00:18:52.818Z,19.23
2023-04-23T00:21:20.858Z,18.00
2023-04-23T00:23:48.807Z,19.40
2023-04-23T00:26:18.613Z,19.77
2023-04-23T00:28:46.602Z,18.90
2023-04-23T00:31:15.956Z,19.65
2023-04-23T00:33:44.066Z,18.55
2023-04-23T00:36:12.022Z,18.50
2023-04-23T00:38:40.086Z,18.70
2023-04-23T00:41:08.549Z,18.88
2023-04-23T00:43:36.693Z,18.85
2023-04-23T00:46:05.172Z,19.55
2023-04-23T00:48:35.455Z,18.88
2023-04-23T00:51:06.166Z,19.00
2023-04-23T00:53:34.656Z,17.92
2023-04-23T00:56:05.162Z,17.38
2023-04-23T00:58:33.607Z,17.95
2023-04-23T01:01:02.919Z,16.17
2023-04-23T01:03:31.709Z,15.85
2023-04-23T01:06:01.496Z,15.65
2023-04-23T01:08:31.038Z,17.02
2023-04-23T01:10:59.740Z,15.77
2023-04-23T01:13:29.765Z,14.75
2023-04-23T01:15:58.262Z,15.98
2023-04-23T01:18:26.901Z,15.40
2023-04-23T01:20:55.071Z,16.15
2023-04-23T01:23:24.471Z,16.52
2023-04-23T01:25:52.494Z,15.25
2023-04-23T01:28:20.754Z,13.55
2023-04-23T01:30:49.415Z,13.13
2023-04-23T01:33:17.691Z,13.20
2023-04-23T01:35:46.295Z,13.67
2023-04-23T01:38:15.868Z,14.10
2023-04-23T01:40:45.564Z,14.07
2023-04-23T01:43:13.894Z,14.23
2023-04-23T01:45:42.583Z,13.60
2023-04-23T01:48:11.112Z,13.20
2023-04-23T01:50:39.712Z,13.97
2023-04-23T01:53:07.625Z,14.63
2023-04-23T01:55:38.992Z,16.53
2023-04-23T01:58:08.448Z,14.77
2023-04-23T02:00:36.945Z,14.47
2023-04-23T02:03:05.192Z,14.93
2023-04-23T02:05:36.387Z,15.97
2023-04-23T02:08:04.792Z,14.73
2023-04-23T02:10:32.981Z,15.40
2023-04-23T02:13:02.227Z,15.40
2023-04-23T02:15:32.602Z,14.00
2023-04-23T02:18:00.763Z,14.40
2023-04-23T02:20:28.742Z,14.00
2023-04-23T02:22:57.334Z,13.77
2023-04-23T02:25:25.333Z,14.30
2023-04-23T02:27:53.353Z,12.80
2023-04-23T02:30:22.841Z,17.93
2023-04-23T02:32:52.270Z,15.43
2023-04-23T02:35:21.218Z,15.10
2023-04-23T02:37:49.238Z,15.53
2023-04-23T02:40:17.186Z,16.17
2023-04-23T02:42:45.204Z,15.40
2023-04-23T02:45:13.251Z,15.83
2023-04-23T02:47:41.316Z,16.60
2023-04-23T02:50:11.400Z,15.90
2023-04-23T02:52:39.377Z,16.33
2023-04-23T02:55:09.058Z,16.90
2023-04-23T02:57:37.120Z,17.03
2023-04-23T03:00:07.027Z,15.50
2023-04-23T03:02:35.140Z,14.90
2023-04-23T03:05:03.224Z,14.33
2023-04-23T03:07:32.739Z,14.87
2023-04-23T03:10:00.692Z,14.47
2023-04-23T03:12:28.638Z,14.20
2023-04-23T03:14:56.677Z,14.47
2023-04-23T03:17:24.676Z,14.60
2023-04-23T03:19:52.715Z,15.77
2023-04-23T03:22:20.750Z,15.23
2023-04-23T03:24:50.043Z,15.00
2023-04-23T03:27:18.009Z,17.50
2023-04-23T03:29:46.531Z,14.87
2023-04-23T03:32:14.478Z,15.03
2023-04-23T03:34:42.635Z,16.20
2023-04-23T03:37:10.852Z,13.80
2023-04-23T03:39:38.797Z,14.40
2023-04-23T03:42:08.191Z,14.33
2023-04-23T03:44:36.136Z,14.73
2023-04-23T03:47:04.286Z,14.70
2023-04-23T03:49:32.288Z,14.40
2023-04-23T03:52:00.518Z,14.77
2023-04-23T03:54:28.496Z,15.23
2023-04-23T03:56:57.761Z,15.20
2023-04-23T03:59:27.108Z,14.60
2023-04-23T04:01:55.125Z,14.70
2023-04-23T04:04:23.256Z,14.97
2023-04-23T04:06:51.422Z,14.10
2023-04-23T04:09:19.354Z,13.50
2023-04-23T04:11:47.398Z,13.37
2023-04-23T04:14:15.501Z,13.47
2023-04-23T04:16:44.941Z,12.47
2023-04-23T04:19:12.885Z,11.90
2023-04-23T04:21:40.866Z,11.87
2023-04-23T04:24:08.834Z,13.20
2023-04-23T04:26:37.359Z,11.30
2023-04-23T04:29:05.280Z,11.33
2023-04-23T04:31:33.363Z,10.50
2023-04-23T04:34:02.862Z,11.17
2023-04-23T04:36:31.888Z,11.77
2023-04-23T04:38:59.856Z,10.30
2023-04-23T04:41:27.872Z,11.73
2023-04-23T04:43:56.128Z,11.00
2023-04-23T04:46:26.122Z,10.80
2023-04-23T04:48:54.137Z,10.93
2023-04-23T04:51:23.743Z,10.83
2023-04-23T04:53:51.701Z,11.53
2023-04-23T04:56:19.664Z,11.80
2023-04-23T04:58:47.780Z,11.20
2023-04-23T05:01:16.023Z,10.83
2023-04-23T05:03:44.144Z,11.47
2023-04-23T05:06:12.255Z,10.70
2023-04-23T05:08:42.862Z,12.47
2023-04-23T05:11:10.806Z,12.53
2023-04-23T05:13:38.765Z,11.80
2023-04-23T05:16:06.950Z,12.13
2023-04-23T05:18:35.265Z,11.97
2023-04-23T05:21:03.562Z,13.00
2023-04-23T05:23:31.979Z,12.40
2023-04-23T05:26:03.586Z,15.93
2023-04-23T05:28:32.335Z,10.30
2023-04-23T05:31:00.603Z,10.67
2023-04-23T05:33:33.352Z,9.00
2023-04-23T05:36:04.722Z,8.93
2023-04-23T05:38:33.345Z,8.60
2023-04-23T05:41:02.762Z,8.80
2023-04-23T05:43:30.720Z,8.97
2023-04-23T05:45:58.641Z,8.03
2023-04-23T05:48:26.600Z,8.07
2023-04-23T05:50:54.612Z,7.77
2023-04-23T05:53:22.566Z,20.70
2023-04-23T05:55:50.546Z,22.20
2023-04-23T05:58:20.742Z,22.43
2023-04-23T06:00:49.946Z,23.27
2023-04-23T06:03:18.206Z,22.70
2023-04-23T06:05:46.268Z,22.30
2023-04-23T06:08:14.369Z,22.87
2023-04-23T06:10:42.389Z,8.55
2023-04-23T06:13:11.121Z,9.13
2023-04-23T06:15:40.508Z,10.45
2023-04-23T06:18:08.603Z,9.98
2023-04-23T06:20:36.573Z,11.95
2023-04-23T06:23:04.525Z,12.00
2023-04-23T06:25:32.484Z,13.02
2023-04-23T06:28:00.418Z,13.07
2023-04-23T06:30:28.377Z,12.52
2023-04-23T06:32:57.822Z,13.02
2023-04-23T06:35:25.770Z,13.05
2023-04-23T06:37:53.768Z,12.50
2023-04-23T06:40:21.692Z,12.65
2023-04-23T06:42:49.711Z,13.80
2023-04-23T06:45:17.693Z,13.90
2023-04-23T06:47:45.750Z,13.50
2023-04-23T06:50:15.178Z,12.20
2023-04-23T06:52:43.828Z,11.95
2023-04-23T06:55:12.364Z,13.65
2023-04-23T06:57:40.678Z,13.65
2023-04-23T07:00:10.892Z,13.30
2023-04-23T07:02:39.000Z,16.10
2023-04-23T07:05:07.464Z,13.00
2023-04-23T07:07:37.581Z,13.95
2023-04-23T07:10:06.178Z,13.98
2023-04-23T07:12:34.187Z,15.07
2023-04-23T07:15:02.141Z,16.10
2023-04-23T07:17:30.165Z,14.93
2023-04-23T07:19:58.270Z,15.98
2023-04-23T07:22:27.777Z,15.15
2023-04-23T07:24:58.732Z,15.52
2023-04-23T07:27:26.820Z,16.92
2023-04-23T07:29:54.932Z,16.77
2023-04-23T07:32:23.814Z,16.17
2023-04-23T07:34:52.419Z,17.20
2023-04-23T07:37:21.834Z,16.58
2023-04-23T07:39:49.898Z,16.95
2023-04-23T07:42:19.339Z,16.17
2023-04-23T07:44:47.290Z,16.70
2023-04-23T07:47:15.267Z,17.00
2023-04-23T07:49:43.722Z,16.85
2023-04-23T07:52:11.893Z,16.90
2023-04-23T07:54:39.889Z,18.98
2023-04-23T07:57:07.875Z,18.13
2023-04-23T07:59:39.401Z,17.40
2023-04-23T08:02:07.860Z,19.02
2023-04-23T08:04:36.235Z,17.45
2023-04-23T08:07:04.283Z,18.40
2023-04-23T08:09:32.223Z,17.90
2023-04-23T08:12:00.236Z,19.60
2023-04-23T08:14:28.321Z,18.05
2023-04-23T08:16:57.629Z,19.60
2023-04-23T08:19:31.981Z,18.75
2023-04-23T08:21:59.959Z,20.08
2023-04-23T08:24:28.030Z,18.23
2023-04-23T08:26:57.585Z,18.90
2023-04-23T08:29:25.578Z,24.40
2023-04-23T08:31:53.768Z,18.88
2023-04-23T08:34:23.088Z,21.52
2023-04-23T08:36:51.032Z,23.88
2023-04-23T08:39:18.948Z,20.92
2023-04-23T08:41:55.405Z,29.63
2023-04-23T08:44:24.819Z,20.42
2023-04-23T08:46:55.312Z,21.35
2023-04-23T08:49:24.912Z,20.38
2023-04-23T08:51:54.618Z,21.02
2023-04-23T08:54:26.820Z,18.77
2023-04-23T08:56:57.563Z,20.20
2023-04-23T08:59:26.644Z,21.27
2023-04-23T09:01:56.136Z,19.33
2023-04-23T09:04:26.169Z,19.57
2023-04-23T09:06:54.230Z,27.63
2023-04-23T09:09:24.625Z,18.80
2023-04-23T09:11:54.742Z,28.00
2023-04-23T09:14:25.165Z,19.50
2023-04-23T09:16:53.500Z,19.38
2023-04-23T09:19:21.580Z,19.83
2023-04-23T09:21:51.914Z,25.10
2023-04-23T09:24:19.889Z,18.92
2023-04-23T09:26:49.312Z,20.77
2023-04-23T09:29:19.238Z,19.23
2023-04-23T09:31:49.554Z,33.15
2023-04-23T09:34:18.232Z,19.85
2023-04-23T09:36:46.813Z,20.83
2023-04-23T09:39:18.164Z,21.17
2023-04-23T09:41:46.874Z,19.67
2023-04-23T09:44:19.193Z,21.83
2023-04-23T09:46:47.165Z,19.55
2023-04-23T09:49:15.263Z,20.60
2023-04-23T09:51:44.668Z,20.42
2023-04-23T09:54:16.363Z,19.48
2023-04-23T09:56:44.969Z,30.02
2023-04-23T09:59:32.595Z,21.55
2023-04-23T10:02:09.695Z,21.90
2023-04-23T10:04:39.098Z,20.25
2023-04-23T10:07:18.065Z,26.00
2023-04-23T10:09:49.388Z,26.20
2023-04-23T10:12:36.545Z,21.75
2023-04-23T10:15:08.459Z,22.08
2023-04-23T10:17:37.135Z,20.33
2023-04-23T10:20:06.952Z,21.13
2023-04-23T10:22:35.932Z,26.85
2023-04-23T10:25:11.271Z,19.88
2023-04-23T10:27:52.122Z,20.48
2023-04-23T10:30:22.664Z,19.85
2023-04-23T10:32:51.947Z,20.65
2023-04-23T10:35:20.094Z,20.45
2023-04-23T10:37:49.671Z,19.05
2023-04-23T10:40:22.969Z,20.27
2023-04-23T10:42:51.573Z,20.02
2023-04-23T10:45:24.739Z,20.00
2023-04-23T10:47:55.095Z,19.83
2023-04-23T10:50:25.286Z,19.48
2023-04-23T10:52:54.619Z,21.70
2023-04-23T10:55:25.936Z,20.40
2023-04-23T10:58:02.935Z,19.80
2023-04-23T11:00:44.129Z,19.30
2023-04-23T11:03:42.477Z,17.92
2023-04-23T11:06:15.769Z,20.77
2023-04-23T11:08:54.884Z,17.92
2023-04-23T11:11:41.076Z,30.38
2023-04-23T11:14:15.106Z,22.80
2023-04-23T11:16:43.185Z,28.92
2023-04-23T11:19:12.715Z,27.02
2023-04-23T11:22:01.163Z,26.17
2023-04-23T11:24:30.852Z,28.75
2023-04-23T11:27:01.320Z,29.63
2023-04-23T11:29:29.794Z,23.67
2023-04-23T11:32:02.372Z,21.05
2023-04-23T11:34:31.709Z,20.15
2023-04-23T11:37:01.404Z,19.30
2023-04-23T11:39:29.399Z,22.05
2023-04-23T11:42:02.963Z,19.50
2023-04-23T11:44:31.715Z,26.15
2023-04-23T11:47:02.148Z,19.50
2023-04-23T11:49:30.147Z,30.05
2023-04-23T11:52:00.909Z,26.80
2023-04-23T11:54:29.564Z,20.92
2023-04-23T11:56:59.813Z,20.58
2023-04-23T11:59:28.012Z,20.95
2023-04-23T12:01:57.548Z,20.13
2023-04-23T12:04:27.414Z,19.15
2023-04-23T12:06:56.859Z,20.08
2023-04-23T12:09:26.363Z,16.45
2023-04-23T12:11:54.760Z,22.25
2023-04-23T12:14:28.873Z,19.52
2023-04-23T12:16:58.351Z,26.08
2023-04-23T12:19:29.391Z,19.20
2023-04-23T12:21:59.416Z,16.65
2023-04-23T12:24:29.548Z,30.20
2023-04-23T12:27:00.551Z,28.75
2023-04-23T12:29:31.856Z,27.38
2023-04-23T12:32:03.314Z,17.98
2023-04-23T12:34:31.249Z,31.33
2023-04-23T12:36:59.260Z,35.03
2023-04-23T12:39:30.408Z,22.58
2023-04-23T12:42:01.614Z,22.38
2023-04-23T12:44:31.025Z,21.95
2023-04-23T12:47:01.093Z,19.08
2023-04-23T12:49:30.061Z,20.38
2023-04-23T12:52:01.268Z,23.92
2023-04-23T12:54:31.283Z,27.75
2023-04-23T12:56:59.891Z,19.80
2023-04-23T12:59:28.015Z,18.83
2023-04-23T13:01:57.445Z,26.65
2023-04-23T13:04:25.423Z,25.40
2023-04-23T13:06:53.470Z,21.70
2023-04-23T13:09:21.917Z,20.38
2023-04-23T13:11:49.863Z,18.85
2023-04-23T13:14:18.411Z,25.08
2023-04-23T13:16:46.497Z,18.77
2023-04-23T13:19:17.182Z,33.22
2023-04-23T13:21:45.604Z,17.98
2023-04-23T13:24:13.552Z,19.75
2023-04-23T13:26:41.651Z,19.45
2023-04-23T13:29:09.595Z,18.10
2023-04-23T13:31:37.579Z,19.02
2023-04-23T13:34:05.612Z,18.95
2023-04-23T13:36:35.033Z,18.80
2023-04-23T13:39:03.012Z,18.70
2023-04-23T13:41:30.978Z,18.70
2023-04-23T13:43:58.943Z,20.50
2023-04-23T13:46:27.139Z,23.05
2023-04-23T13:48:55.223Z,19.75
2023-04-23T13:51:34.752Z,18.20
2023-04-23T13:54:05.581Z,18.95
2023-04-23T13:56:33.768Z,18.73
2023-04-23T14:01:35.136Z,18.20
2023-04-23T14:04:04.681Z,19.20
2023-04-23T14:06:32.758Z,19.02
2023-04-23T14:09:00.722Z,18.67
2023-04-23T14:11:30.137Z,19.05
2023-04-23T14:13:58.390Z,19.73
2023-04-23T14:16:26.352Z,19.38
2023-04-23T14:18:54.339Z,21.33
2023-04-23T14:21:22.970Z,26.88
2023-04-23T14:23:56.207Z,30.75
2023-04-23T14:26:47.238Z,26.33
2023-04-23T14:29:25.710Z,17.70
2023-04-23T14:31:53.785Z,17.60
2023-04-23T14:34:22.246Z,18.27
2023-04-23T14:36:52.766Z,18.90
2023-04-23T14:39:21.018Z,19.52
2023-04-23T14:41:50.342Z,19.83
2023-04-23T14:44:18.501Z,32.80
2023-04-23T14:46:46.458Z,29.55
2023-04-23T14:49:14.446Z,18.35
2023-04-23T14:51:42.665Z,18.38
2023-04-23T14:54:10.834Z,19.35
2023-04-23T14:56:38.805Z,19.63
2023-04-23T14:59:08.089Z,18.23
2023-04-23T15:01:38.264Z,18.90
2023-04-23T15:04:06.495Z,19.40
2023-04-23T15:06:34.500Z,19.08
2023-04-23T15:09:02.546Z,20.23
2023-04-23T15:11:30.547Z,19.63
2023-04-23T15:14:04.554Z,19.40
2023-04-23T15:16:48.094Z,19.20
2023-04-23T15:19:18.515Z,18.85
2023-04-23T15:21:47.080Z,19.23
2023-04-23T15:24:15.557Z,19.95
2023-04-23T15:26:45.812Z,20.92
2023-04-23T15:29:14.482Z,18.73
2023-04-23T15:31:43.893Z,19.15
2023-04-23T15:34:12.309Z,19.48
2023-04-23T15:36:40.421Z,18.50
2023-04-23T15:39:09.175Z,19.77
2023-04-23T15:41:40.129Z,18.00
2023-04-23T15:44:12.017Z,19.15
2023-04-23T15:46:40.686Z,36.80
2023-04-23T15:49:10.229Z,18.05
2023-04-23T15:51:38.325Z,18.35
2023-04-23T15:54:08.633Z,18.05
2023-04-23T15:56:37.279Z,18.55
2023-04-23T15:59:05.420Z,18.15
2023-04-23T16:01:33.660Z,17.88
2023-04-23T16:06:33.920Z,19.58
2023-04-23T16:09:02.448Z,22.52
2023-04-23T16:11:30.443Z,19.65
2023-04-23T16:13:58.424Z,17.88
2023-04-23T16:16:29.041Z,21.00
2023-04-23T16:18:57.694Z,18.92
2023-04-23T16:21:25.868Z,22.00
2023-04-23T16:23:55.191Z,19.92
2023-04-23T16:26:23.284Z,18.33
2023-04-23T16:29:05.647Z,21.58
2023-04-23T16:31:34.316Z,22.55
2023-04-23T16:34:02.333Z,19.42
2023-04-23T16:36:32.019Z,19.13
2023-04-23T16:39:01.326Z,18.95
2023-04-23T16:41:29.379Z,18.55
2023-04-23T16:43:57.317Z,19.92
2023-04-23T16:46:26.281Z,18.27
2023-04-23T16:48:54.281Z,18.90
2023-04-23T16:51:22.214Z,18.40
2023-04-23T16:53:50.443Z,19.95
2023-04-23T16:56:19.827Z,19.67
2023-04-23T16:58:47.914Z,19.55
2023-04-23T17:01:16.553Z,19.42
2023-04-23T17:03:44.889Z,20.67
2023-04-23T17:06:21.705Z,18.95
2023-04-23T17:08:49.668Z,19.60
2023-04-23T17:11:19.026Z,19.98
2023-04-23T17:13:47.054Z,19.88
2023-04-23T17:16:15.071Z,19.27
2023-04-23T17:18:43.074Z,19.58
2023-04-23T17:21:11.517Z,18.70
2023-04-23T17:23:39.464Z,19.75
2023-04-23T17:26:07.663Z,19.15
2023-04-23T17:28:37.054Z,19.05
2023-04-23T17:31:05.044Z,19.50
2023-04-23T17:33:33.076Z,19.52
2023-04-23T17:36:01.158Z,19.45
2023-04-23T17:38:29.415Z,20.55
2023-04-23T17:40:59.936Z,19.90
2023-04-23T17:43:31.640Z,19.60
2023-04-23T17:46:01.041Z,21.30
2023-04-23T17:48:29.226Z,18.75
2023-04-23T17:50:57.204Z,20.48
2023-04-23T17:53:25.165Z,19.00
2023-04-23T17:55:53.858Z,20.45
2023-04-23T17:58:22.005Z,20.98
2023-04-23T18:00:50.279Z,19.60
2023-04-23T18:03:21.929Z,21.02
2023-04-23T18:05:50.214Z,19.88
2023-04-23T18:08:19.597Z,20.95
2023-04-23T18:10:47.577Z,20.25
2023-04-23T18:13:15.814Z,19.27
2023-04-23T18:15:45.774Z,19.85
2023-04-23T18:18:13.701Z,19.75
2023-04-23T18:20:43.958Z,19.88
2023-04-23T18:23:12.865Z,19.85
2023-04-23T18:25:41.816Z,19.35
2023-04-23T18:28:09.817Z,20.52
2023-04-23T18:30:38.724Z,20.08
2023-04-23T18:33:12.706Z,20.20
2023-04-23T18:35:43.966Z,21.08
2023-04-23T18:38:12.680Z,20.20
2023-04-23T18:40:40.693Z,19.50
2023-04-23T18:43:08.645Z,19.83
2023-04-23T18:45:36.837Z,19.15
2023-04-23T18:48:22.169Z,19.17
2023-04-23T18:50:51.692Z,20.10
2023-04-23T18:53:21.658Z,20.58
2023-04-23T18:55:50.218Z,19.00
2023-04-23T18:58:18.161Z,20.38
2023-04-23T19:00:46.147Z,19.90
2023-04-23T19:03:25.866Z,21.10
2023-04-23T19:05:56.889Z,20.92
2023-04-23T19:08:28.727Z,20.42
2023-04-23T19:10:57.302Z,21.48
2023-04-23T19:13:25.371Z,20.98
2023-04-23T19:15:53.479Z,20.33
2023-04-23T19:18:21.705Z,19.95
2023-04-23T19:20:49.668Z,20.38
2023-04-23T19:23:19.013Z,20.92
2023-04-23T19:25:46.978Z,19.60
2023-04-23T19:28:15.014Z,19.08
2023-04-23T19:30:42.970Z,19.67
2023-04-23T19:33:11.828Z,19.10
2023-04-23T19:35:40.473Z,20.17
2023-04-23T19:38:08.723Z,20.67
2023-04-23T19:40:38.160Z,20.38
2023-04-23T19:43:06.108Z,21.02
2023-04-23T19:45:34.109Z,19.90
2023-04-23T19:48:04.545Z,21.98
2023-04-23T19:50:32.749Z,21.02
2023-04-23T19:53:00.804Z,20.70
2023-04-23T19:55:28.892Z,21.88
2023-04-23T19:57:58.596Z,19.58
2023-04-23T20:00:30.074Z,22.92
2023-04-23T20:02:58.287Z,20.40
2023-04-23T20:05:27.916Z,18.88
2023-04-23T20:07:56.058Z,19.38
2023-04-23T20:10:29.075Z,19.90
2023-04-23T20:12:59.584Z,19.75
2023-04-23T20:15:28.361Z,20.02
2023-04-23T20:17:56.477Z,20.27
2023-04-23T20:20:25.801Z,19.67
2023-04-23T20:22:53.768Z,19.85
2023-04-23T20:25:25.587Z,19.35
2023-04-23T20:27:56.949Z,19.27
2023-04-23T20:30:26.515Z,19.80
2023-04-23T20:32:54.551Z,19.50
2023-04-23T20:35:22.579Z,19.13
2023-04-23T20:37:50.586Z,19.55
2023-04-23T20:40:19.019Z,18.92
2023-04-23T20:42:51.460Z,19.33
2023-04-23T20:45:20.641Z,21.60
2023-04-23T20:47:51.336Z,21.10
2023-04-23T20:50:19.393Z,19.20
2023-04-23T20:52:47.352Z,20.80
2023-04-23T20:55:15.368Z,19.23
2023-04-23T20:57:43.529Z,20.90
2023-04-23T21:00:12.832Z,20.75
2023-04-23T21:02:41.272Z,19.02
2023-04-23T21:05:13.186Z,19.77
2023-04-23T21:07:41.282Z,19.98
2023-04-23T21:10:09.681Z,19.95
2023-04-23T21:12:37.974Z,19.02
2023-04-23T21:15:06.827Z,19.58
2023-04-23T21:17:34.832Z,19.10
2023-04-23T21:20:02.872Z,19.33
2023-04-23T21:22:32.521Z,19.10
2023-04-23T21:25:00.498Z,20.80
2023-04-23T21:27:28.579Z,21.00
2023-04-23T21:29:57.564Z,19.40
2023-04-23T21:32:25.739Z,19.17
2023-04-23T21:34:53.742Z,19.75
2023-04-23T21:37:21.885Z,19.38
2023-04-23T21:39:51.189Z,19.77
2023-04-23T21:42:19.166Z,19.75
2023-04-23T21:44:47.141Z,20.05
2023-04-23T21:47:15.139Z,20.35
2023-04-23T21:49:43.354Z,19.35
2023-04-23T21:52:11.735Z,19.67
2023-04-23T21:54:39.700Z,20.17
2023-04-23T21:57:09.112Z,19.23
2023-04-23T21:59:37.232Z,18.92
2023-04-23T22:02:05.278Z,18.98
2023-04-23T22:04:33.863Z,20.55
2023-04-23T22:07:03.422Z,19.55
2023-04-23T22:09:31.401Z,19.83
2023-04-23T22:12:02.336Z,18.80
2023-04-23T22:14:32.367Z,18.25
2023-04-23T22:17:02.028Z,17.60
2023-04-23T22:19:31.212Z,17.13
2023-04-23T22:21:59.375Z,15.57
2023-04-23T22:24:27.380Z,14.55
2023-04-23T22:26:55.493Z,11.73
2023-04-23T22:29:23.442Z,10.70
2023-04-23T22:31:52.802Z,8.38
2023-04-23T22:34:20.894Z,6.70
2023-04-23T22:36:48.918Z,5.20
2023-04-23T22:39:17.067Z,4.20
2023-04-23T22:41:45.048Z,3.90
2023-04-23T22:44:12.985Z,3.22
2023-04-23T22:46:41.373Z,1.67
2023-04-23T22:49:14.135Z,3.58
2023-04-23T22:51:42.102Z,1.25
2023-04-23T22:54:10.072Z,1.35
2023-04-23T22:56:38.353Z,2.53
2023-04-23T22:59:06.438Z,4.32
2023-04-23T23:01:34.538Z,0.70
2023-04-23T23:04:02.596Z,1.77
2023-04-23T23:06:32.401Z,1.02
2023-04-23T23:09:00.353Z,1.75
2023-04-23T23:11:28.773Z,2.00
2023-04-23T23:13:57.268Z,2.47
2023-04-23T23:16:25.584Z,1.67
2023-04-23T23:18:53.991Z,1.83
2023-04-23T23:21:22.001Z,0.68
2023-04-23T23:23:51.512Z,4.55
2023-04-23T23:26:20.042Z,0.47
2023-04-23T23:28:48.053Z,1.23
2023-04-23T23:31:16.220Z,1.35
2023-04-23T23:33:44.275Z,2.85
2023-04-23T23:36:12.240Z,1.48
2023-04-23T23:38:40.197Z,3.75
2023-04-23T23:41:09.510Z,3.03
2023-04-23T23:43:37.526Z,1.10
2023-04-23T23:46:05.558Z,3.70
2023-04-23T23:48:33.541Z,1.05
2023-04-23T23:51:01.520Z,2.58
2023-04-23T23:53:29.451Z,1.90
2023-04-23T23:55:57.421Z,0.68
2023-04-23T23:58:26.893Z,1.98
